Time;durP1;ratioP1;P1;durP2;ratioP2;P2;SDS_P1;SDS_P2;PMS_P1;PMS_P2;Temp;Humidity;BMP_temperature;BMP_pressure;BME280_temperature;BME280_humidity;BME280_pressure;Samples;Min_cycle;Max_cycle;Signal;HPM_P1;HPM_P2
2023/12/01 00:01:51;;;;;;;21.27;13.30;;;;;;;3.19;71.30;94617.91;5101546;28;20038;-78
2023/12/01 00:04:17;;;;;;;22.83;12.80;;;;;;;3.16;71.53;94602.41;5084836;28;20472;-75
2023/12/01 00:06:42;;;;;;;19.95;12.85;;;;;;;3.13;71.35;94600.47;5099023;28;20046;-75
2023/12/01 00:09:08;;;;;;;18.38;12.43;;;;;;;3.14;71.48;94593.88;5084953;28;20039;-75
2023/12/01 00:11:33;;;;;;;20.70;12.55;;;;;;;3.14;71.30;94602.78;5097613;28;20030;-75
2023/12/01 00:13:58;;;;;;;21.48;12.73;;;;;;;3.20;71.22;94600.44;5106001;28;20023;-77
2023/12/01 00:16:24;;;;;;;17.73;12.40;;;;;;;3.11;71.18;94603.59;5105289;28;20036;-76
2023/12/01 00:18:49;;;;;;;21.13;12.65;;;;;;;3.18;71.17;94611.72;5104802;28;20038;-76
2023/12/01 00:21:15;;;;;;;21.55;12.40;;;;;;;3.29;70.45;94608.94;5090616;28;20024;-76
2023/12/01 00:23:40;;;;;;;18.25;11.98;;;;;;;3.19;70.74;94601.59;5097067;28;20110;-77
2023/12/01 00:26:06;;;;;;;21.25;12.35;;;;;;;3.14;70.74;94602.03;5097606;27;20466;-77
2023/12/01 00:28:31;;;;;;;20.33;12.20;;;;;;;3.16;70.94;94595.03;5088722;28;20115;-76
2023/12/01 00:30:57;;;;;;;21.77;13.55;;;;;;;3.17;71.35;94584.94;5101545;28;20093;-76
2023/12/01 00:33:22;;;;;;;19.70;12.85;;;;;;;3.17;70.89;94579.50;5093577;28;20154;-76
2023/12/01 00:35:47;;;;;;;20.00;12.15;;;;;;;3.15;70.88;94579.91;5107585;28;20036;-76
2023/12/01 00:38:13;;;;;;;22.58;13.77;;;;;;;3.13;70.98;94576.81;5102663;28;20496;-75
2023/12/01 00:40:38;;;;;;;21.45;13.07;;;;;;;3.14;71.03;94588.44;5101829;28;20153;-76
2023/12/01 00:43:04;;;;;;;19.75;12.23;;;;;;;3.10;71.00;94595.84;5089499;28;20035;-76
2023/12/01 00:45:29;;;;;;;25.55;15.30;;;;;;;3.12;71.02;94590.78;5081106;28;20089;-76
2023/12/01 00:47:54;;;;;;;23.63;13.85;;;;;;;3.12;70.89;94590.78;5099627;28;20038;-76
2023/12/01 00:50:20;;;;;;;23.73;13.77;;;;;;;3.09;71.23;94595.06;5094073;28;20028;-76
2023/12/01 00:52:45;;;;;;;23.02;13.40;;;;;;;3.11;70.96;94603.59;5105936;28;20032;-76
2023/12/01 00:55:11;;;;;;;23.88;14.50;;;;;;;3.10;70.87;94601.28;5105922;28;20349;-76
2023/12/01 00:57:36;;;;;;;22.13;13.85;;;;;;;3.10;70.98;94601.28;5093402;28;20024;-76
2023/12/01 01:00:03;;;;;;;19.58;12.40;;;;;;;3.15;71.24;94596.22;5093910;28;20027;-76
2023/12/01 01:02:31;;;;;;;21.98;12.70;;;;;;;3.14;71.17;94585.72;5078924;28;20119;-76
2023/12/01 01:04:56;;;;;;;20.00;12.75;;;;;;;3.11;71.20;94565.56;5084451;28;20073;-76
2023/12/01 01:07:22;;;;;;;22.65;13.93;;;;;;;3.13;71.26;94589.63;5097104;28;20031;-75
2023/12/01 01:09:47;;;;;;;21.40;13.38;;;;;;;3.12;71.66;94572.56;5088889;28;20115;-76
2023/12/01 01:12:12;;;;;;;22.73;13.50;;;;;;;3.13;71.46;94592.34;5102487;28;20059;-77
2023/12/01 01:14:38;;;;;;;22.08;12.75;;;;;;;3.16;71.51;94577.97;5101166;28;20507;-76
2023/12/01 01:17:03;;;;;;;22.23;12.95;;;;;;;3.19;71.59;94566.28;5090044;28;20036;-75
2023/12/01 01:19:29;;;;;;;19.45;12.52;;;;;;;3.25;71.46;94594.59;5087173;28;20118;-76
2023/12/01 01:21:54;;;;;;;20.35;13.73;;;;;;;3.22;71.27;94573.66;5087254;28;20494;-75
2023/12/01 01:24:19;;;;;;;22.75;14.45;;;;;;;3.27;71.59;94553.44;5106628;28;20452;-76
2023/12/01 01:26:45;;;;;;;22.20;13.07;;;;;;;3.29;71.84;94581.75;5090408;28;20133;-77
2023/12/01 01:29:10;;;;;;;24.55;12.80;;;;;;;3.25;71.77;94558.50;5100994;28;20083;-76
2023/12/01 01:31:35;;;;;;;18.27;12.23;;;;;;;3.19;71.85;94561.63;5088279;28;20034;-76
2023/12/01 01:34:01;;;;;;;20.00;11.98;;;;;;;3.26;71.85;94587.97;5093345;28;20040;-75
2023/12/01 01:36:26;;;;;;;23.42;14.40;;;;;;;3.28;71.80;94557.72;5094086;28;20033;-76
2023/12/01 01:38:52;;;;;;;22.65;13.13;;;;;;;3.27;71.68;94556.94;5093241;28;20024;-75
2023/12/01 01:41:18;;;;;;;20.38;13.85;;;;;;;3.31;72.31;94554.19;5070507;28;20060;-76
2023/12/01 01:43:43;;;;;;;22.52;13.82;;;;;;;3.27;71.88;94550.72;5078244;28;20066;-75
2023/12/01 01:46:09;;;;;;;23.33;13.88;;;;;;;3.30;71.82;94566.22;5094034;28;20044;-76
2023/12/01 01:48:35;;;;;;;24.02;14.98;;;;;;;3.29;72.01;94570.91;5087433;28;20050;-77
2023/12/01 01:51:02;;;;;;;24.25;14.20;;;;;;;3.30;71.72;94577.88;5088340;28;20039;-75
2023/12/01 01:53:27;;;;;;;24.27;15.50;;;;;;;3.27;72.04;94559.66;5095596;28;20039;-75
2023/12/01 01:55:57;;;;;;;24.95;16.25;;;;;;;3.30;71.78;94561.56;5089078;28;20036;-76
2023/12/01 01:58:22;;;;;;;22.30;14.60;;;;;;;3.35;71.71;94572.00;5090507;28;20042;-76
2023/12/01 02:00:51;;;;;;;28.13;16.00;;;;;;;3.37;71.61;94536.28;5103760;28;20023;-76
2023/12/01 02:03:17;;;;;;;24.27;16.00;;;;;;;3.45;71.28;94530.41;5099405;28;20024;-77
2023/12/01 02:05:47;;;;;;;26.63;15.68;;;;;;;3.44;71.27;94530.78;5087075;28;20115;-76
2023/12/01 02:08:39;;;;;;;26.00;15.52;;;;;;;3.44;71.37;94542.44;5091192;28;20020;-76
2023/12/01 02:11:05;;;;;;;25.52;15.80;;;;;;;3.39;71.27;94547.53;5067274;28;20039;-76
2023/12/01 02:13:30;;;;;;;28.45;16.30;;;;;;;3.43;71.30;94527.28;5104985;28;20374;-76
2023/12/01 02:15:59;;;;;;;32.15;18.27;;;;;;;3.35;71.50;94525.81;5074981;28;20064;-76
2023/12/01 02:18:29;;;;;;;26.90;16.88;;;;;;;3.32;71.58;94517.69;5069997;28;20020;-77
2023/12/01 02:20:56;;;;;;;31.63;19.30;;;;;;;3.34;71.59;94535.16;5088858;28;20070;-76
2023/12/01 02:23:21;;;;;;;26.98;16.75;;;;;;;3.31;71.87;94535.94;5101553;28;20624;-77
2023/12/01 02:25:47;;;;;;;26.52;18.15;;;;;;;3.39;71.32;94534.72;5105487;28;20123;-77
2023/12/01 02:28:13;;;;;;;24.23;15.88;;;;;;;3.41;71.42;94523.44;5095835;28;20028;-77
2023/12/01 02:30:39;;;;;;;24.17;16.05;;;;;;;3.35;71.51;94542.13;5097068;28;20035;-77
2023/12/01 02:33:05;;;;;;;27.25;16.42;;;;;;;3.35;71.76;94536.69;5073156;28;20139;-75
2023/12/01 02:35:30;;;;;;;24.27;15.73;;;;;;;3.38;71.69;94560.34;5078097;28;20111;-75
2023/12/01 02:37:56;;;;;;;26.17;15.57;;;;;;;3.39;71.58;94552.97;5069994;28;20047;-76
2023/12/01 02:40:23;;;;;;;23.20;14.77;;;;;;;3.33;72.01;94530.13;5087317;28;20037;-75
2023/12/01 02:42:49;;;;;;;20.00;13.98;;;;;;;3.45;71.84;94535.84;5065412;28;20110;-75
2023/12/01 02:45:16;;;;;;;21.52;14.45;;;;;;;3.43;71.96;94529.25;5087475;28;20043;-76
2023/12/01 02:47:43;;;;;;;21.45;11.73;;;;;;;3.36;72.22;94511.06;5095146;28;20062;-75
2023/12/01 02:50:09;;;;;;;20.15;13.00;;;;;;;3.42;72.05;94531.19;5093071;28;20032;-76
2023/12/01 02:52:36;;;;;;;20.05;13.05;;;;;;;3.45;71.85;94516.81;5098358;28;20035;-76
2023/12/01 02:55:02;;;;;;;21.05;13.02;;;;;;;3.44;72.32;94539.72;5086200;28;20036;-77
2023/12/01 02:57:27;;;;;;;21.25;13.80;;;;;;;3.50;72.00;94548.22;5087591;28;20077;-76
2023/12/01 02:59:53;;;;;;;20.77;12.20;;;;;;;3.54;72.24;94523.72;5086009;28;20032;-76
2023/12/01 03:02:18;;;;;;;25.02;14.40;;;;;;;3.51;71.98;94509.00;5086963;28;20038;-75
2023/12/01 03:04:44;;;;;;;20.95;13.32;;;;;;;3.55;72.02;94519.84;5067800;28;20108;-77
2023/12/01 03:07:09;;;;;;;21.45;13.50;;;;;;;3.57;72.12;94514.78;5091363;28;20068;-76
2023/12/01 03:09:34;;;;;;;21.10;13.57;;;;;;;3.61;71.73;94534.53;5096369;28;20099;-76
2023/12/01 03:12:00;;;;;;;22.10;13.63;;;;;;;3.63;71.71;94499.59;5103237;28;20088;-76
2023/12/01 03:14:25;;;;;;;22.50;13.07;;;;;;;3.65;71.77;94529.84;5103115;28;20038;-76
2023/12/01 03:16:51;;;;;;;21.17;13.57;;;;;;;3.68;71.42;94524.38;5085734;28;20034;-76
2023/12/01 03:19:16;;;;;;;19.23;12.18;;;;;;;3.74;71.56;94524.72;5088571;28;20110;-76
2023/12/01 03:21:42;;;;;;;23.15;13.27;;;;;;;3.76;71.42;94525.09;5103912;28;20502;-76
2023/12/01 03:24:09;;;;;;;20.98;13.13;;;;;;;3.76;71.61;94546.84;5088061;28;20032;-77
2023/12/01 03:26:37;;;;;;;22.02;12.75;;;;;;;3.78;71.41;94527.41;5084040;28;20040;-76
2023/12/01 03:29:03;;;;;;;23.67;12.35;;;;;;;3.76;71.59;94530.53;5103922;28;20448;-76
2023/12/01 03:31:28;;;;;;;19.38;11.43;;;;;;;3.81;71.55;94521.94;5086324;28;20085;-76
2023/12/01 03:33:54;;;;;;;21.77;12.02;;;;;;;3.80;71.52;94534.00;5088369;28;20023;-75
2023/12/01 03:36:21;;;;;;;19.45;12.00;;;;;;;3.89;71.29;94514.47;5100770;28;20064;-76
2023/12/01 03:38:47;;;;;;;19.42;11.95;;;;;;;3.89;71.10;94504.34;5094831;28;20028;-76
2023/12/01 03:41:12;;;;;;;17.58;11.50;;;;;;;3.88;71.37;94502.81;5105699;28;20062;-76
2023/12/01 03:43:38;;;;;;;19.08;11.88;;;;;;;3.92;71.18;94510.94;5097984;28;20047;-76
2023/12/01 03:46:03;;;;;;;18.42;10.85;;;;;;;3.84;71.10;94496.66;5103499;28;20036;-76
2023/12/01 03:48:30;;;;;;;20.40;11.98;;;;;;;3.97;70.87;94530.31;5105287;28;20019;-78
2023/12/01 03:50:56;;;;;;;20.02;11.30;;;;;;;4.02;70.88;94537.28;5098545;28;20038;-77
2023/12/01 03:53:21;;;;;;;16.95;11.23;;;;;;;4.04;70.86;94526.75;5092259;28;20024;-76
2023/12/01 03:55:46;;;;;;;19.00;11.48;;;;;;;4.10;70.81;94535.25;5095419;28;20040;-75
2023/12/01 03:58:12;;;;;;;18.02;10.98;;;;;;;4.07;70.70;94525.16;5100172;28;20092;-76
2023/12/01 04:00:37;;;;;;;19.17;11.60;;;;;;;4.10;70.60;94529.81;5088214;28;20485;-76
2023/12/01 04:03:02;;;;;;;16.60;11.70;;;;;;;4.07;70.75;94555.88;5093080;28;20056;-76
2023/12/01 04:05:28;;;;;;;20.10;11.45;;;;;;;4.06;70.63;94531.78;5083655;28;20054;-76
2023/12/01 04:07:54;;;;;;;20.48;12.57;;;;;;;3.98;70.66;94514.78;5086057;28;20028;-76
2023/12/01 04:10:19;;;;;;;20.25;12.27;;;;;;;4.08;70.74;94535.66;5090549;28;20028;-76
2023/12/01 04:12:45;;;;;;;23.88;13.43;;;;;;;4.08;70.75;94519.34;5084293;28;20410;-77
2023/12/01 04:15:15;;;;;;;22.52;14.05;;;;;;;4.10;70.39;94518.94;5089236;28;20101;-76
2023/12/01 04:17:44;;;;;;;26.58;14.43;;;;;;;4.08;70.28;94513.91;5064324;28;20112;-76
2023/12/01 04:20:20;;;;;;;22.63;14.50;;;;;;;4.13;70.06;94520.81;5082580;28;20035;-77
2023/12/01 04:22:53;;;;;;;21.70;13.82;;;;;;;4.11;70.30;94531.34;5104121;28;20092;-76
2023/12/01 04:25:19;;;;;;;24.02;15.05;;;;;;;4.13;70.14;94516.19;5098017;28;20051;-77
2023/12/01 04:27:46;;;;;;;26.70;16.20;;;;;;;4.14;69.88;94517.72;5086283;28;20032;-77
2023/12/01 04:30:15;;;;;;;21.83;14.57;;;;;;;4.11;70.14;94491.31;5098915;28;20030;-77
2023/12/01 04:32:45;;;;;;;23.55;14.80;;;;;;;4.11;70.21;94501.41;5074740;28;20418;-77
2023/12/01 04:35:12;;;;;;;26.08;15.70;;;;;;;4.12;70.19;94505.69;5102053;28;20528;-76
2023/12/01 04:37:38;;;;;;;21.85;14.18;;;;;;;4.08;70.32;94515.84;5104064;28;20034;-76
2023/12/01 04:40:04;;;;;;;24.25;12.73;;;;;;;4.04;70.28;94488.66;5098307;28;20036;-76
2023/12/01 04:42:29;;;;;;;20.75;14.20;;;;;;;4.10;70.51;94497.16;5096309;28;20036;-77
2023/12/01 04:44:54;;;;;;;22.52;15.68;;;;;;;4.08;70.37;94483.97;5085519;28;20047;-76
2023/12/01 04:47:20;;;;;;;26.65;16.45;;;;;;;4.12;70.23;94495.56;5103152;28;20060;-76
2023/12/01 04:49:46;;;;;;;27.20;16.70;;;;;;;4.13;70.17;94490.91;5104787;28;20031;-75
2023/12/01 04:52:11;;;;;;;22.75;14.02;;;;;;;4.12;70.36;94494.78;5098318;28;20024;-76
2023/12/01 04:54:37;;;;;;;21.27;13.85;;;;;;;4.10;70.07;94502.59;5065088;28;20509;-76
2023/12/01 04:57:02;;;;;;;20.65;12.63;;;;;;;4.08;70.39;94485.94;5084284;28;20024;-76
2023/12/01 04:59:28;;;;;;;18.00;11.88;;;;;;;4.08;70.33;94483.97;5075403;28;20218;-76
2023/12/01 05:01:53;;;;;;;21.50;14.02;;;;;;;4.08;70.33;94472.31;5076339;28;20032;-77
2023/12/01 05:04:19;;;;;;;18.67;12.68;;;;;;;4.07;70.38;94489.78;5100100;28;20145;-76
2023/12/01 05:06:44;;;;;;;23.77;14.80;;;;;;;4.07;70.24;94500.69;5087578;28;20531;-77
2023/12/01 05:09:16;;;;;;;20.45;12.55;;;;;;;4.03;70.46;94502.69;5088330;28;20024;-76
2023/12/01 05:11:45;;;;;;;23.98;13.80;;;;;;;4.07;70.34;94515.09;5103392;28;20104;-77
2023/12/01 05:14:10;;;;;;;21.70;13.98;;;;;;;4.06;70.33;94527.13;5087512;28;20069;-77
2023/12/01 05:16:36;;;;;;;21.17;13.80;;;;;;;4.06;70.51;94520.91;5103254;28;20416;-76
2023/12/01 05:19:02;;;;;;;25.33;14.80;;;;;;;4.12;70.31;94508.41;5105103;28;20110;-76
2023/12/01 05:21:27;;;;;;;23.45;14.23;;;;;;;4.05;70.79;94492.16;5107205;28;20032;-76
2023/12/01 05:23:52;;;;;;;22.60;12.43;;;;;;;3.98;70.72;94507.38;5108924;28;20131;-76
2023/12/01 05:26:18;;;;;;;20.52;13.57;;;;;;;4.05;70.76;94511.22;5105510;28;20425;-76
2023/12/01 05:28:43;;;;;;;23.33;14.98;;;;;;;4.07;70.75;94495.25;5097237;28;20028;-76
2023/12/01 05:31:10;;;;;;;21.80;14.65;;;;;;;4.03;70.90;94500.75;5104240;28;20476;-78
2023/12/01 05:33:38;;;;;;;23.33;14.75;;;;;;;4.00;70.96;94524.06;5098226;28;20020;-76
2023/12/01 05:36:06;;;;;;;22.55;15.07;;;;;;;3.98;71.23;94512.81;5090122;28;20107;-78
2023/12/01 05:38:31;;;;;;;25.02;16.52;;;;;;;3.96;71.11;94515.19;5097046;28;20023;-78
2023/12/01 05:40:57;;;;;;;20.13;13.77;;;;;;;4.01;71.12;94508.50;5106704;28;20085;-78
2023/12/01 05:43:22;;;;;;;23.00;14.32;;;;;;;4.05;71.12;94508.47;5092796;28;20513;-77
2023/12/01 05:45:47;;;;;;;22.40;13.68;;;;;;;4.03;71.19;94511.63;5095510;28;20035;-77
2023/12/01 05:48:13;;;;;;;21.23;12.15;;;;;;;4.10;71.29;94503.38;5090837;28;20115;-77
2023/12/01 05:50:42;;;;;;;19.15;13.13;;;;;;;4.09;71.35;94501.06;5088779;28;20035;-77
2023/12/01 05:53:08;;;;;;;21.00;14.85;;;;;;;4.16;71.08;94504.47;5087479;28;20123;-76
2023/12/01 05:55:37;;;;;;;24.13;15.70;;;;;;;4.15;70.84;94511.09;5097505;28;20099;-77
2023/12/01 05:58:10;;;;;;;20.00;13.88;;;;;;;4.25;70.74;94514.88;5096899;28;20115;-76
2023/12/01 06:00:36;;;;;;;23.17;15.05;;;;;;;4.25;70.76;94496.59;5087381;28;20031;-77
2023/12/01 06:03:06;;;;;;;21.42;13.77;;;;;;;4.25;70.85;94512.16;5098184;28;20411;-77
2023/12/01 06:05:33;;;;;;;18.10;12.27;;;;;;;4.25;71.11;94523.03;5085994;28;20069;-77
2023/12/01 06:08:00;;;;;;;21.00;12.05;;;;;;;4.23;71.37;94495.44;5086959;28;20106;-77
2023/12/01 06:10:29;;;;;;;20.80;13.23;;;;;;;4.26;71.30;94506.31;5096490;28;20042;-77
2023/12/01 06:12:55;;;;;;;18.10;12.38;;;;;;;4.30;71.19;94495.38;5093011;28;20043;-77
2023/12/01 06:15:22;;;;;;;20.17;13.48;;;;;;;4.38;70.86;94499.56;5088244;28;20054;-77
2023/12/01 06:17:49;;;;;;;19.95;13.68;;;;;;;4.41;70.56;94489.78;5087407;28;20032;-77
2023/12/01 06:20:19;;;;;;;20.23;12.60;;;;;;;4.42;70.85;94505.75;5099114;28;20502;-77
2023/12/01 06:22:49;;;;;;;21.25;13.43;;;;;;;4.45;70.90;94513.06;5097900;28;20078;-76
2023/12/01 06:25:16;;;;;;;20.17;14.38;;;;;;;4.55;70.61;94508.69;5093470;28;20036;-76
2023/12/01 06:27:42;;;;;;;23.08;13.65;;;;;;;4.57;70.65;94532.78;5085827;28;20540;-78
2023/12/01 06:30:11;;;;;;;20.83;13.90;;;;;;;4.55;70.57;94516.84;5088688;28;20024;-76
2023/12/01 06:32:46;;;;;;;22.55;14.40;;;;;;;4.58;70.62;94509.81;5102461;28;20418;-76
2023/12/01 06:35:13;;;;;;;24.42;15.57;;;;;;;4.64;70.51;94527.22;5103377;28;20039;-76
2023/12/01 06:37:40;;;;;;;22.17;14.27;;;;;;;4.53;70.68;94503.66;5101407;28;20514;-77
2023/12/01 06:40:12;;;;;;;24.23;14.88;;;;;;;4.64;70.63;94519.84;5086173;28;20104;-76
2023/12/01 06:42:54;;;;;;;21.55;14.20;;;;;;;4.69;70.75;94516.66;5081012;28;20035;-76
2023/12/01 06:45:26;;;;;;;16.65;12.93;;;;;;;4.76;70.34;94513.88;5070648;28;20149;-76
2023/12/01 06:47:52;;;;;;;23.70;14.98;;;;;;;4.82;70.56;94506.00;5085833;28;20032;-77
2023/12/01 06:50:19;;;;;;;24.42;15.02;;;;;;;4.85;70.06;94499.72;5085373;28;20028;-74
2023/12/01 06:52:46;;;;;;;22.70;14.68;;;;;;;4.91;70.55;94522.59;5085410;28;20032;-72
2023/12/01 06:55:11;;;;;;;21.73;14.23;;;;;;;4.97;70.19;94523.69;5069073;28;20071;-74
2023/12/01 06:57:41;;;;;;;19.13;13.55;;;;;;;5.01;70.18;94516.25;5086385;28;20051;-73
2023/12/01 07:00:08;;;;;;;25.60;14.95;;;;;;;5.06;70.10;94531.34;5087487;28;20036;-76
2023/12/01 07:02:37;;;;;;;22.55;15.40;;;;;;;5.21;69.79;94540.84;5092533;28;20019;-75
2023/12/01 07:05:08;;;;;;;19.80;14.07;;;;;;;5.23;69.14;94549.41;5087256;28;20059;-74
2023/12/01 07:07:34;;;;;;;23.27;14.38;;;;;;;5.27;69.44;94535.72;5086543;28;20070;-74
2023/12/01 07:09:59;;;;;;;25.58;14.75;;;;;;;5.31;69.32;94530.97;5068076;28;20035;-74
2023/12/01 07:12:25;;;;;;;23.33;14.77;;;;;;;5.34;69.45;94530.16;5085374;28;20077;-73
2023/12/01 07:14:50;;;;;;;23.77;15.32;;;;;;;5.37;69.39;94517.66;5084566;28;20077;-74
2023/12/01 07:17:16;;;;;;;16.00;11.48;;;;;;;5.44;69.24;94498.47;5087372;28;20489;-74
2023/12/01 07:19:41;;;;;;;23.50;14.75;;;;;;;5.52;69.26;94530.66;5084088;28;20031;-73
2023/12/01 07:22:07;;;;;;;28.50;17.10;;;;;;;5.56;68.49;94525.94;5086220;28;20032;-73
2023/12/01 07:24:33;;;;;;;25.38;17.80;;;;;;;5.54;68.35;94520.09;5084333;28;20107;-73
2023/12/01 07:26:58;;;;;;;25.45;18.42;;;;;;;5.56;68.63;94512.28;5068137;28;20111;-74
2023/12/01 07:29:24;;;;;;;29.27;19.33;;;;;;;5.58;68.71;94511.88;5084937;28;20020;-74
2023/12/01 07:31:51;;;;;;;27.92;17.80;;;;;;;5.69;68.54;94519.88;5085530;28;20028;-74
2023/12/01 07:34:18;;;;;;;25.88;17.25;;;;;;;5.69;68.58;94492.63;5085227;28;20020;-74
2023/12/01 07:36:44;;;;;;;29.75;18.92;;;;;;;5.73;68.71;94496.78;5085230;28;20028;-73
2023/12/01 07:39:09;;;;;;;30.90;20.38;;;;;;;5.78;68.74;94498.28;5068308;28;20119;-75
2023/12/01 07:41:34;;;;;;;29.92;19.48;;;;;;;5.83;68.79;94508.72;5084192;28;20078;-76
2023/12/01 07:44:00;;;;;;;30.77;20.02;;;;;;;5.89;68.65;94522.66;5086317;28;20525;-74
2023/12/01 07:46:25;;;;;;;23.30;16.65;;;;;;;5.97;68.61;94540.47;5084158;28;20111;-74
2023/12/01 07:48:50;;;;;;;23.98;16.08;;;;;;;5.98;68.32;94506.56;5084619;28;20428;-74
2023/12/01 07:51:16;;;;;;;20.73;15.57;;;;;;;6.19;67.93;94554.50;5084462;28;20036;-74
2023/12/01 07:53:44;;;;;;;27.98;15.57;;;;;;;6.14;67.96;94493.00;5085312;28;20020;-74
2023/12/01 07:56:21;;;;;;;25.48;15.57;;;;;;;6.29;67.60;94515.31;5084966;28;20335;-75
2023/12/01 07:58:46;;;;;;;23.27;15.40;;;;;;;6.31;67.52;94505.53;5083656;28;20446;-74
2023/12/01 08:01:14;;;;;;;27.35;17.23;;;;;;;6.31;67.65;94534.81;5084747;28;20111;-74
2023/12/01 08:03:43;;;;;;;24.02;16.83;;;;;;;6.30;67.75;94536.72;5085322;28;20040;-74
2023/12/01 08:06:08;;;;;;;26.40;17.05;;;;;;;6.32;67.56;94548.03;5084139;28;20035;-74
2023/12/01 08:08:34;;;;;;;29.95;17.95;;;;;;;6.39;67.49;94555.31;5085996;28;20024;-73
2023/12/01 08:11:00;;;;;;;28.40;18.17;;;;;;;6.43;66.82;94533.41;5066937;28;20070;-73
2023/12/01 08:13:25;;;;;;;25.88;17.98;;;;;;;6.36;67.21;94494.09;5084823;28;20119;-73
2023/12/01 08:15:51;;;;;;;30.00;20.13;;;;;;;6.47;67.10;94553.97;5083697;28;20110;-73
2023/12/01 08:18:16;;;;;;;32.33;19.60;;;;;;;6.45;67.30;94512.66;5086119;28;20059;-74
2023/12/01 08:20:41;;;;;;;30.75;20.73;;;;;;;6.46;67.46;94549.72;5085029;28;20106;-73
2023/12/01 08:23:09;;;;;;;31.73;19.42;;;;;;;6.53;67.49;94573.38;5084057;28;20121;-74
2023/12/01 08:25:34;;;;;;;34.70;21.20;;;;;;;6.51;67.70;94573.78;5085492;28;20028;-74
2023/12/01 08:28:00;;;;;;;31.95;21.50;;;;;;;6.52;67.51;94545.28;5085418;28;20047;-74
2023/12/01 08:30:25;;;;;;;28.80;19.73;;;;;;;6.56;67.08;94546.00;5096815;28;20450;-78
2023/12/01 08:32:51;;;;;;;25.65;18.80;;;;;;;6.59;67.24;94528.00;5083678;28;20025;-77
2023/12/01 08:35:17;;;;;;;35.10;23.33;;;;;;;6.71;67.08;94562.91;5087368;28;20024;-74
2023/12/01 08:37:42;;;;;;;33.30;21.50;;;;;;;6.70;67.13;94549.63;5091914;28;20117;-77
2023/12/01 08:40:11;;;;;;;27.70;19.95;;;;;;;6.73;66.94;94557.00;5084505;28;20123;-73
2023/12/01 08:42:39;;;;;;;31.23;20.95;;;;;;;6.74;67.07;94547.59;5096702;28;20061;-74
2023/12/01 08:45:05;;;;;;;32.30;20.23;;;;;;;6.80;66.71;94529.53;5103473;28;20471;-74
2023/12/01 08:47:30;;;;;;;35.80;24.75;;;;;;;6.83;66.81;94554.06;5108240;28;20059;-74
2023/12/01 08:49:56;;;;;;;30.42;21.15;;;;;;;6.93;66.60;94536.66;5102413;28;20081;-73
2023/12/01 08:52:22;;;;;;;29.00;19.48;;;;;;;6.99;66.67;94533.41;5099268;28;20035;-75
2023/12/01 08:54:47;;;;;;;27.83;17.20;;;;;;;7.07;66.14;94512.97;5107476;28;20028;-74
2023/12/01 08:57:12;;;;;;;31.50;16.58;;;;;;;7.10;66.20;94510.13;5096173;28;20058;-74
2023/12/01 08:59:38;;;;;;;26.63;16.73;;;;;;;7.23;66.22;94507.53;5103365;28;20431;-75
2023/12/01 09:02:04;;;;;;;23.55;16.00;;;;;;;7.42;65.89;94511.38;5096656;28;20072;-75
2023/12/01 09:04:29;;;;;;;27.13;16.85;;;;;;;7.58;65.25;94519.59;5094623;28;20387;-74
2023/12/01 09:06:55;;;;;;;28.48;18.83;;;;;;;7.71;65.39;94512.22;5089931;28;20043;-76
2023/12/01 09:09:20;;;;;;;30.65;20.98;;;;;;;7.77;65.14;94470.66;5088717;28;20020;-75
2023/12/01 09:11:45;;;;;;;39.05;26.38;;;;;;;7.89;64.17;94475.44;5104769;28;20111;-73
2023/12/01 09:14:11;;;;;;;39.15;25.48;;;;;;;7.98;64.10;94509.22;5106056;28;20027;-73
2023/12/01 09:16:36;;;;;;;35.38;24.58;;;;;;;7.97;64.00;94495.94;5101453;28;20106;-74
2023/12/01 09:19:02;;;;;;;35.75;23.83;;;;;;;8.02;64.09;94479.00;5088959;28;20393;-75
2023/12/01 09:21:27;;;;;;;43.55;27.20;;;;;;;8.11;64.09;94513.97;5069132;28;20027;-73
2023/12/01 09:23:52;;;;;;;45.45;29.60;;;;;;;8.26;63.77;94517.91;5089655;28;20445;-74
2023/12/01 09:26:18;;;;;;;44.90;29.30;;;;;;;8.32;62.89;94509.91;5098415;28;20076;-74
2023/12/01 09:28:43;;;;;;;63.00;34.90;;;;;;;8.29;63.33;94500.59;5098636;28;20031;-75
2023/12/01 09:31:10;;;;;;;56.85;35.35;;;;;;;8.31;63.34;94506.38;5088803;28;20031;-74
2023/12/01 09:33:37;;;;;;;57.70;35.72;;;;;;;8.40;63.01;94549.63;5087585;28;20027;-74
2023/12/01 09:36:11;;;;;;;52.50;33.38;;;;;;;8.55;61.99;94512.44;5089572;28;20111;-85
2023/12/01 09:38:36;;;;;;;48.97;33.85;;;;;;;8.58;62.12;94522.50;5095650;28;20015;-79
2023/12/01 09:41:02;;;;;;;54.70;34.83;;;;;;;8.80;61.80;94506.25;5069743;28;20025;-79
2023/12/01 09:43:30;;;;;;;51.55;32.90;;;;;;;9.63;59.46;94510.00;5070058;28;20089;-79
2023/12/01 09:45:55;;;;;;;49.05;31.27;;;;;;;11.55;54.86;94494.94;5073131;28;20056;-75
2023/12/01 09:48:21;;;;;;;50.30;32.90;;;;;;;12.82;52.04;94486.53;5087213;28;20081;-75
2023/12/01 09:50:47;;;;;;;44.50;29.15;;;;;;;13.02;51.34;94493.09;5087433;28;20024;-76
2023/12/01 09:53:13;;;;;;;46.60;30.13;;;;;;;14.39;47.83;94487.38;5095438;28;20016;-76
2023/12/01 09:55:38;;;;;;;44.30;28.15;;;;;;;16.17;43.99;94500.75;5087675;28;20047;-75
2023/12/01 09:58:04;;;;;;;39.47;27.50;;;;;;;17.89;40.02;94488.38;5088607;28;20052;-76
2023/12/01 10:00:30;;;;;;;39.58;27.83;;;;;;;18.95;38.11;94490.16;5085959;28;20442;-76
2023/12/01 10:02:55;;;;;;;33.28;23.90;;;;;;;20.24;35.71;94504.88;5088241;28;20031;-76
2023/12/01 10:05:20;;;;;;;31.60;23.63;;;;;;;21.39;34.05;94503.44;5087932;28;20083;-76
2023/12/01 10:07:48;;;;;;;28.83;21.70;;;;;;;22.40;31.43;94499.78;5087734;28;20375;-76
2023/12/01 10:10:25;;;;;;;31.50;22.13;;;;;;;23.46;30.39;94491.38;5088891;28;20334;-76
2023/12/01 10:13:04;;;;;;;24.90;20.35;;;;;;;24.19;28.37;94473.34;5087256;28;20571;-77
2023/12/01 10:15:34;;;;;;;27.80;20.88;;;;;;;25.00;27.85;94484.81;5094506;28;20052;-81
2023/12/01 10:18:15;;;;;;;39.63;29.60;;;;;;;25.78;26.69;94479.53;5095317;28;20032;-81
2023/12/01 10:21:03;;;;;;;46.70;38.53;;;;;;;26.97;25.61;94481.53;5098108;28;20088;-82
2023/12/01 10:23:30;;;;;;;27.83;21.73;;;;;;;27.98;24.58;94467.19;5105418;28;20134;-78
2023/12/01 10:25:56;;;;;;;31.50;22.88;;;;;;;27.23;25.00;94466.44;5086975;28;20044;-76
2023/12/01 10:28:26;;;;;;;29.02;22.42;;;;;;;26.41;26.28;94473.88;5087830;28;20028;-76
2023/12/01 10:30:57;;;;;;;28.10;22.23;;;;;;;25.67;27.25;94465.69;5086687;28;20139;-77
2023/12/01 10:33:23;;;;;;;42.33;33.22;;;;;;;25.40;27.40;94470.66;5086942;28;20054;-75
2023/12/01 10:36:05;;;;;;;105.25;80.78;;;;;;;24.87;29.13;94467.97;5087687;28;20075;-76
2023/12/01 10:38:33;;;;;;;81.03;61.35;;;;;;;24.34;29.63;94443.47;5087189;28;20032;-78
2023/12/01 10:40:59;;;;;;;36.80;27.85;;;;;;;23.72;29.46;94434.59;5096852;28;20110;-76
2023/12/01 10:43:27;;;;;;;75.43;55.97;;;;;;;24.08;30.01;94438.53;5088483;28;20059;-77
2023/12/01 10:45:53;;;;;;;50.53;36.63;;;;;;;24.47;29.26;94431.47;5106229;28;20034;-74
2023/12/01 10:48:20;;;;;;;47.10;30.52;;;;;;;24.62;28.58;94442.91;5106194;28;20019;-76
2023/12/01 10:50:49;;;;;;;28.80;22.48;;;;;;;24.40;28.90;94432.13;5103709;28;20027;-76
2023/12/01 10:53:16;;;;;;;30.17;22.10;;;;;;;24.07;29.37;94437.03;5087227;28;20074;-76
2023/12/01 10:55:46;;;;;;;27.55;21.17;;;;;;;23.75;29.55;94437.09;5084560;28;20028;-78
2023/12/01 10:58:25;;;;;;;26.30;19.27;;;;;;;23.71;29.88;94438.72;5098673;28;20036;-79
2023/12/01 11:00:53;;;;;;;23.50;19.00;;;;;;;24.71;28.61;94427.66;5085281;28;20040;-80
2023/12/01 11:03:22;;;;;;;25.60;19.20;;;;;;;24.93;28.30;94429.25;5087197;28;20020;-77
2023/12/01 11:05:50;;;;;;;30.13;21.90;;;;;;;24.25;28.65;94432.63;5077024;28;20374;-78
2023/12/01 11:08:24;;;;;;;34.20;23.48;;;;;;;23.65;29.21;94427.56;5085286;28;20078;-77
2023/12/01 11:10:55;;;;;;;36.53;25.73;;;;;;;23.01;30.63;94436.69;5090499;28;20023;-78
2023/12/01 11:13:39;;;;;;;36.22;26.75;;;;;;;22.57;31.23;94423.22;5098697;28;20062;-79
2023/12/01 11:16:07;;;;;;;36.92;27.23;;;;;;;22.91;31.38;94424.34;5072658;28;20068;-80
2023/12/01 11:18:32;;;;;;;37.72;28.70;;;;;;;22.29;32.52;94409.56;5073950;28;20035;-82
2023/12/01 11:20:57;;;;;;;35.42;28.13;;;;;;;21.79;33.63;94397.59;5105335;28;20027;-78
2023/12/01 11:23:24;;;;;;;41.63;30.30;;;;;;;21.37;33.78;94410.19;5095845;28;20131;-80